createdAt,value
2022-12-12T00:04:19.265Z,56.03
2022-12-12T00:09:23.270Z,49.97
2022-12-12T00:14:28.477Z,56.22
2022-12-12T00:19:32.267Z,54.33
2022-12-12T00:24:36.025Z,59.65
2022-12-12T00:29:41.041Z,48.47
2022-12-12T00:34:44.718Z,45.05
2022-12-12T00:39:48.428Z,52.33
2022-12-12T00:44:53.461Z,48.58
2022-12-12T00:49:57.144Z,50.35
2022-12-12T00:55:00.886Z,50.03
2022-12-12T01:00:06.773Z,49.08
2022-12-12T01:05:11.693Z,50.47
2022-12-12T01:10:15.660Z,47.55
2022-12-12T01:15:20.800Z,54.10
2022-12-12T01:20:27.579Z,48.85
2022-12-12T01:25:31.633Z,50.55
2022-12-12T01:30:37.265Z,61.20
2022-12-12T01:35:40.967Z,52.13
2022-12-12T01:40:45.048Z,58.90
2022-12-12T01:46:32.992Z,58.92
2022-12-12T01:51:38.293Z,58.75
2022-12-12T01:56:45.260Z,54.45
2022-12-12T02:01:51.013Z,52.33
2022-12-12T02:06:56.300Z,55.10
2022-12-12T02:12:00.169Z,54.53
2022-12-12T02:17:32.658Z,52.00
2022-12-12T02:22:57.866Z,56.08
2022-12-12T02:28:23.877Z,60.47
2022-12-12T02:33:36.582Z,58.20
2022-12-12T02:38:48.179Z,56.37
2022-12-12T02:44:02.078Z,56.85
2022-12-12T02:49:12.589Z,55.75
2022-12-12T02:54:19.777Z,53.72
2022-12-12T02:59:27.048Z,47.23
2022-12-12T03:05:00.138Z,39.60
2022-12-12T03:10:11.364Z,45.50
2022-12-12T03:15:21.709Z,51.90
2022-12-12T03:20:30.565Z,50.90
2022-12-12T03:25:40.101Z,58.17
2022-12-12T03:30:48.207Z,56.58
2022-12-12T03:35:57.607Z,52.42
2022-12-12T03:41:04.087Z,51.33
2022-12-12T03:46:15.344Z,50.90
2022-12-12T03:51:27.002Z,64.50
2022-12-12T03:56:32.959Z,49.95
2022-12-12T04:01:45.055Z,52.38
2022-12-12T04:06:56.084Z,52.10
2022-12-12T04:12:26.075Z,50.55
2022-12-12T04:17:37.433Z,46.45
2022-12-12T04:23:05.582Z,50.65
2022-12-12T04:28:09.339Z,47.88
2022-12-12T04:33:15.643Z,55.30
2022-12-12T04:38:24.940Z,52.42
2022-12-12T04:43:34.187Z,49.50
2022-12-12T04:48:44.216Z,61.88
2022-12-12T04:53:54.203Z,55.08
2022-12-12T04:58:59.537Z,58.20
2022-12-12T05:04:07.152Z,58.67
2022-12-12T05:09:13.808Z,50.72
2022-12-12T05:14:18.540Z,52.83
2022-12-12T05:19:22.279Z,57.38
2022-12-12T05:24:30.764Z,57.65
2022-12-12T05:29:34.435Z,62.83
2022-12-12T05:34:38.149Z,52.72
2022-12-12T05:39:43.210Z,54.42
2022-12-12T05:44:47.113Z,52.00
2022-12-12T05:49:50.866Z,56.22
2022-12-12T05:54:55.953Z,55.63
2022-12-12T05:59:59.779Z,52.70
2022-12-12T06:05:03.533Z,53.85
2022-12-12T06:10:09.941Z,50.67
2022-12-12T06:15:13.904Z,56.35
2022-12-12T06:20:18.132Z,58.05
2022-12-12T06:25:23.254Z,50.00
2022-12-12T06:30:27.069Z,51.67
2022-12-12T06:35:30.814Z,52.70
2022-12-12T06:40:35.853Z,46.83
2022-12-12T06:45:39.579Z,49.05
2022-12-12T06:50:45.955Z,51.35
2022-12-12T06:55:51.199Z,53.35
2022-12-12T07:00:55.533Z,44.95
2022-12-12T07:05:59.236Z,47.97
2022-12-12T07:11:06.588Z,46.80
2022-12-12T07:16:11.124Z,49.03
2022-12-12T07:21:17.067Z,46.85
2022-12-12T07:26:23.635Z,49.03
2022-12-12T07:31:29.005Z,49.47
2022-12-12T07:36:32.823Z,46.92
2022-12-12T07:41:40.636Z,52.10
2022-12-12T07:46:44.755Z,45.12
2022-12-12T07:51:49.505Z,52.13
2022-12-12T07:56:54.686Z,54.10
2022-12-12T08:01:58.568Z,44.85
2022-12-12T08:07:08.125Z,43.55
2022-12-12T08:12:13.682Z,51.85
2022-12-12T08:17:17.433Z,48.70
2022-12-12T08:22:21.772Z,46.20
2022-12-12T08:27:27.386Z,43.80
2022-12-12T08:32:31.181Z,56.97
2022-12-12T08:37:35.634Z,46.55
2022-12-12T08:42:41.007Z,45.05
2022-12-12T08:47:44.719Z,48.25
2022-12-12T08:52:48.424Z,49.63
2022-12-12T08:57:53.660Z,45.95
2022-12-12T09:02:57.514Z,48.67
2022-12-12T09:08:01.454Z,46.33
2022-12-12T09:13:07.501Z,47.13
2022-12-12T09:18:11.455Z,54.42
2022-12-12T09:23:15.270Z,40.08
2022-12-12T09:28:22.415Z,49.38
2022-12-12T09:33:26.283Z,40.63
2022-12-12T09:38:30.364Z,48.17
2022-12-12T09:43:40.029Z,43.97
2022-12-12T09:48:47.050Z,46.17
2022-12-12T09:53:51.663Z,37.17
2022-12-12T09:59:02.243Z,48.28
2022-12-12T10:04:18.709Z,39.35
2022-12-12T10:09:52.353Z,42.53
2022-12-12T10:15:01.924Z,40.65
2022-12-12T10:20:09.885Z,36.92
2022-12-12T10:30:25.654Z,42.67
2022-12-12T10:35:35.105Z,44.53
2022-12-12T10:40:51.573Z,42.30
2022-12-12T10:46:16.411Z,41.60
2022-12-12T10:51:22.629Z,37.00
2022-12-12T10:56:28.993Z,35.72
2022-12-12T11:07:01.503Z,32.33
2022-12-12T11:12:14.155Z,32.88
2022-12-12T11:17:25.696Z,36.03
2022-12-12T11:22:33.101Z,38.00
2022-12-12T11:27:40.794Z,34.05
2022-12-12T11:32:50.032Z,33.63
2022-12-12T11:37:58.770Z,32.83
2022-12-12T11:43:23.934Z,31.15
2022-12-12T11:48:56.100Z,31.25
2022-12-12T11:54:00.814Z,29.95
2022-12-12T11:59:22.868Z,28.83
2022-12-12T12:04:52.699Z,34.50
2022-12-12T12:10:04.350Z,28.85
2022-12-12T12:15:29.133Z,32.88
2022-12-12T12:20:46.623Z,36.40
2022-12-12T12:25:59.155Z,29.10
2022-12-12T12:31:10.348Z,30.73
2022-12-12T12:36:22.606Z,31.15
2022-12-12T12:41:45.559Z,27.10
2022-12-12T12:46:59.172Z,28.87
2022-12-12T12:52:11.523Z,25.35
2022-12-12T12:57:18.910Z,25.85
2022-12-12T13:02:27.734Z,28.87
2022-12-12T13:07:41.510Z,25.48
2022-12-12T13:12:49.135Z,24.60
2022-12-12T13:18:01.538Z,21.60
2022-12-12T13:23:19.818Z,23.12
2022-12-12T13:28:27.381Z,20.30
2022-12-12T13:33:45.995Z,20.63
2022-12-12T13:38:53.387Z,23.40
2022-12-12T13:43:59.012Z,19.90
2022-12-12T13:49:29.054Z,24.23
2022-12-12T13:54:56.643Z,23.52
2022-12-12T14:00:31.450Z,21.40
2022-12-12T14:05:37.264Z,26.30
2022-12-12T14:10:51.531Z,22.62
2022-12-12T14:16:07.671Z,24.52
2022-12-12T14:21:13.926Z,25.52
2022-12-12T14:26:59.223Z,23.10
2022-12-12T14:32:35.610Z,46.17
2022-12-12T14:37:51.564Z,42.33
2022-12-12T14:43:18.714Z,27.98
2022-12-12T14:48:27.441Z,23.48
2022-12-12T14:53:35.177Z,22.05
2022-12-12T14:58:43.094Z,23.48
2022-12-12T15:03:50.732Z,24.42
2022-12-12T15:08:55.335Z,26.77
2022-12-12T15:14:01.241Z,24.55
2022-12-12T15:19:06.449Z,29.17
2022-12-12T15:24:19.334Z,25.35
2022-12-12T15:29:25.276Z,28.55
2022-12-12T15:34:38.323Z,30.75
2022-12-12T15:39:42.048Z,27.45
2022-12-12T15:44:48.062Z,31.50
2022-12-12T15:49:54.485Z,31.42
2022-12-12T15:55:00.413Z,37.78
2022-12-12T16:00:08.656Z,34.78
2022-12-12T16:05:30.217Z,32.83
2022-12-12T16:10:34.697Z,38.47
2022-12-12T16:15:39.553Z,34.30
2022-12-12T16:20:47.913Z,36.47
2022-12-12T16:25:52.066Z,36.85
2022-12-12T16:30:58.421Z,33.80
2022-12-12T16:36:06.071Z,38.58
2022-12-12T16:41:15.178Z,38.92
2022-12-12T16:46:21.874Z,40.47
2022-12-12T16:51:29.979Z,34.25
2022-12-12T17:01:39.047Z,37.28
2022-12-12T17:06:44.431Z,42.95
2022-12-12T17:11:49.809Z,35.67
2022-12-12T17:16:54.903Z,37.58
2022-12-12T17:22:00.648Z,41.50
2022-12-12T17:27:04.466Z,36.90
2022-12-12T17:32:08.411Z,43.17
2022-12-12T17:37:13.511Z,44.38
2022-12-12T17:42:17.247Z,44.83
2022-12-12T17:47:20.906Z,46.42
2022-12-12T17:52:26.023Z,38.42
2022-12-12T17:57:30.736Z,45.58
2022-12-12T18:02:34.889Z,43.35
2022-12-12T18:07:39.998Z,47.20
2022-12-12T18:12:49.835Z,51.08
2022-12-12T18:17:55.290Z,42.70
2022-12-12T18:23:00.722Z,41.45
2022-12-12T18:28:04.664Z,49.08
2022-12-12T18:33:08.677Z,41.08
2022-12-12T18:38:14.181Z,49.92
2022-12-12T18:43:17.827Z,46.15
2022-12-12T18:48:21.566Z,42.95
2022-12-12T18:53:26.650Z,34.15
2022-12-12T18:58:30.324Z,35.60
2022-12-12T19:03:35.036Z,36.17
2022-12-12T19:08:40.675Z,36.72
2022-12-12T19:13:44.920Z,31.85
2022-12-12T19:18:49.134Z,38.85
2022-12-12T19:23:54.370Z,36.70
2022-12-12T19:28:59.669Z,34.80
2022-12-12T19:34:04.147Z,32.78
2022-12-12T19:39:12.305Z,33.63
2022-12-12T19:44:16.028Z,35.55
2022-12-12T19:49:19.769Z,34.90
2022-12-12T19:54:24.911Z,35.75
2022-12-12T19:59:28.919Z,43.03
2022-12-12T20:04:32.722Z,45.60
2022-12-12T20:09:37.950Z,41.10
2022-12-12T20:14:41.691Z,50.80
2022-12-12T20:19:47.301Z,44.08
2022-12-12T20:24:52.699Z,45.38
2022-12-12T20:29:56.577Z,51.00
2022-12-12T20:35:00.420Z,50.67
2022-12-12T20:40:06.903Z,42.70
2022-12-12T20:45:11.638Z,40.20
2022-12-12T20:50:15.915Z,40.42
2022-12-12T20:55:20.980Z,41.42
2022-12-12T21:00:26.560Z,46.40
2022-12-12T21:05:30.932Z,40.67
2022-12-12T21:10:35.953Z,35.30
2022-12-12T21:15:39.677Z,37.22
2022-12-12T21:20:45.189Z,34.35
2022-12-12T21:25:50.229Z,40.00
2022-12-12T21:30:54.341Z,38.33
2022-12-12T21:36:03.939Z,37.72
2022-12-12T21:41:11.012Z,40.78
2022-12-12T21:46:16.712Z,47.73
2022-12-12T21:51:20.498Z,42.62
2022-12-12T21:56:25.818Z,40.25
2022-12-12T22:01:29.593Z,46.97
2022-12-12T22:06:35.730Z,46.45
2022-12-12T22:11:51.587Z,45.10
2022-12-12T22:16:56.330Z,56.40
2022-12-12T22:22:00.030Z,42.90
2022-12-12T22:27:05.222Z,37.58
2022-12-12T22:32:08.925Z,46.20
2022-12-12T22:37:12.735Z,46.50
2022-12-12T22:42:17.855Z,39.92
2022-12-12T22:47:23.889Z,39.30
2022-12-12T22:52:28.722Z,40.90
2022-12-12T22:57:34.400Z,46.25
2022-12-12T23:02:38.287Z,44.55
2022-12-12T23:07:42.242Z,37.47
2022-12-12T23:12:47.319Z,44.97
2022-12-12T23:17:51.015Z,47.33
2022-12-12T23:22:54.698Z,47.25
2022-12-12T23:27:59.852Z,42.15
2022-12-12T23:33:03.589Z,43.00
2022-12-12T23:38:07.306Z,50.33
2022-12-12T23:43:12.673Z,43.65
2022-12-12T23:48:16.500Z,39.65
2022-12-12T23:53:20.266Z,45.40
2022-12-12T23:58:25.363Z,52.38
